sensor_id;sensor_type;location;lat;lon;timestamp;pressure;altitude;pressure_sealevel;temperature;humidity
55759;BME280;41678;52.126;20.664;2023-03-13T00:04:30;99794.31;;;0.84;85.00
55759;BME280;41678;52.126;20.664;2023-03-13T00:09:50;99782.28;;;0.88;84.71
55759;BME280;41678;52.126;20.664;2023-03-13T00:15:10;99760.72;;;0.89;85.04
55759;BME280;41678;52.126;20.664;2023-03-13T00:20:30;99763.44;;;0.96;85.03
55759;BME280;41678;52.126;20.664;2023-03-13T00:26:01;99753.88;;;0.94;84.50
55759;BME280;41678;52.126;20.664;2023-03-13T00:31:23;99765.28;;;1.04;85.15
55759;BME280;41678;52.126;20.664;2023-03-13T00:36:42;99765.38;;;1.07;84.78
55759;BME280;41678;52.126;20.664;2023-03-13T00:42:02;99757.50;;;1.02;84.72
55759;BME280;41678;52.126;20.664;2023-03-13T00:47:22;99754.25;;;1.14;84.67
55759;BME280;41678;52.126;20.664;2023-03-13T00:52:41;99748.28;;;1.18;84.72
55759;BME280;41678;52.126;20.664;2023-03-13T00:58:01;99729.22;;;1.16;85.16
55759;BME280;41678;52.126;20.664;2023-03-13T01:03:22;99729.31;;;1.21;84.77
55759;BME280;41678;52.126;20.664;2023-03-13T01:08:43;99730.16;;;1.20;85.25
55759;BME280;41678;52.126;20.664;2023-03-13T01:14:06;99719.03;;;1.25;84.87
55759;BME280;41678;52.126;20.664;2023-03-13T01:19:26;99701.59;;;1.17;85.13
55759;BME280;41678;52.126;20.664;2023-03-13T01:24:45;99710.56;;;1.37;84.87
55759;BME280;41678;52.126;20.664;2023-03-13T01:30:09;99707.03;;;1.34;85.08
55759;BME280;41678;52.126;20.664;2023-03-13T01:35:29;99705.25;;;1.30;85.09
55759;BME280;41678;52.126;20.664;2023-03-13T01:40:48;99711.28;;;1.29;85.05
55759;BME280;41678;52.126;20.664;2023-03-13T01:51:52;99692.38;;;1.34;85.69
55759;BME280;41678;52.126;20.664;2023-03-13T01:57:47;99681.91;;;1.30;85.64
55759;BME280;41678;52.126;20.664;2023-03-13T02:03:11;99685.31;;;1.27;85.47
55759;BME280;41678;52.126;20.664;2023-03-13T02:08:40;99680.25;;;1.33;85.63
55759;BME280;41678;52.126;20.664;2023-03-13T02:14:02;99683.72;;;1.35;85.53
55759;BME280;41678;52.126;20.664;2023-03-13T02:19:46;99672.44;;;1.32;85.77
55759;BME280;41678;52.126;20.664;2023-03-13T02:30:43;99660.25;;;1.27;85.96
55759;BME280;41678;52.126;20.664;2023-03-13T02:36:04;99664.56;;;1.25;85.85
55759;BME280;41678;52.126;20.664;2023-03-13T02:41:26;99670.59;;;1.24;85.79
55759;BME280;41678;52.126;20.664;2023-03-13T02:46:50;99656.78;;;1.25;86.37
55759;BME280;41678;52.126;20.664;2023-03-13T02:52:16;99671.44;;;1.25;86.16
55759;BME280;41678;52.126;20.664;2023-03-13T02:57:38;99663.88;;;1.37;85.82
55759;BME280;41678;52.126;20.664;2023-03-13T03:02:59;99663.78;;;1.31;85.97
55759;BME280;41678;52.126;20.664;2023-03-13T03:08:19;99671.56;;;1.33;86.33
55759;BME280;41678;52.126;20.664;2023-03-13T03:13:40;99674.16;;;1.33;85.99
55759;BME280;41678;52.126;20.664;2023-03-13T03:19:00;99669.03;;;1.36;86.49
55759;BME280;41678;52.126;20.664;2023-03-13T03:24:20;99667.53;;;1.50;86.25
55759;BME280;41678;52.126;20.664;2023-03-13T03:29:40;99667.41;;;1.41;86.71
55759;BME280;41678;52.126;20.664;2023-03-13T03:35:01;99648.34;;;1.39;86.83
55759;BME280;41678;52.126;20.664;2023-03-13T03:40:21;99653.56;;;1.44;87.00
55759;BME280;41678;52.126;20.664;2023-03-13T03:45:41;99640.72;;;1.50;87.04
55759;BME280;41678;52.126;20.664;2023-03-13T03:51:01;99646.69;;;1.44;87.65
55759;BME280;41678;52.126;20.664;2023-03-13T03:56:22;99648.47;;;1.48;87.64
55759;BME280;41678;52.126;20.664;2023-03-13T04:01:47;99652.03;;;1.53;87.51
55759;BME280;41678;52.126;20.664;2023-03-13T04:07:11;99648.63;;;1.58;88.60
55759;BME280;41678;52.126;20.664;2023-03-13T04:12:33;99613.88;;;1.49;88.35
55759;BME280;41678;52.126;20.664;2023-03-13T04:17:53;99617.47;;;1.58;88.31
55759;BME280;41678;52.126;20.664;2023-03-13T04:23:14;99619.19;;;1.55;88.98
55759;BME280;41678;52.126;20.664;2023-03-13T04:28:34;99598.44;;;1.55;89.23
55759;BME280;41678;52.126;20.664;2023-03-13T04:33:55;99598.47;;;1.59;89.72
55759;BME280;41678;52.126;20.664;2023-03-13T04:39:23;99594.16;;;1.61;89.77
55759;BME280;41678;52.126;20.664;2023-03-13T04:44:51;99589.09;;;1.70;89.68
55759;BME280;41678;52.126;20.664;2023-03-13T04:50:26;99574.50;;;1.77;89.74
55759;BME280;41678;52.126;20.664;2023-03-13T04:56:05;99576.13;;;1.70;90.32
55759;BME280;41678;52.126;20.664;2023-03-13T05:01:45;99572.72;;;1.74;90.39
55759;BME280;41678;52.126;20.664;2023-03-13T05:07:22;99574.38;;;1.69;90.72
55759;BME280;41678;52.126;20.664;2023-03-13T05:12:55;99574.47;;;1.75;90.80
55759;BME280;41678;52.126;20.664;2023-03-13T05:18:40;99575.44;;;1.85;91.04
55759;BME280;41678;52.126;20.664;2023-03-13T05:24:39;99571.97;;;1.83;91.17
55759;BME280;41678;52.126;20.664;2023-03-13T05:30:33;99578.97;;;1.92;91.42
55759;BME280;41678;52.126;20.664;2023-03-13T05:36:02;99587.66;;;1.92;91.17
55759;BME280;41678;52.126;20.664;2023-03-13T05:41:22;99567.84;;;1.99;90.90
55759;BME280;41678;52.126;20.664;2023-03-13T05:47:11;99566.13;;;2.01;91.17
55759;BME280;41678;52.126;20.664;2023-03-13T05:52:37;99567.91;;;2.05;91.94
55759;BME280;41678;52.126;20.664;2023-03-13T05:58:23;99567.91;;;2.05;91.69
55759;BME280;41678;52.126;20.664;2023-03-13T06:04:03;99568.81;;;2.10;91.73
55759;BME280;41678;52.126;20.664;2023-03-13T06:09:26;99561.16;;;2.23;92.05
55759;BME280;41678;52.126;20.664;2023-03-13T06:14:48;99541.22;;;2.19;91.80
55759;BME280;41678;52.126;20.664;2023-03-13T06:20:19;99539.56;;;2.29;92.23
55759;BME280;41678;52.126;20.664;2023-03-13T06:25:39;99536.09;;;2.26;91.81
55759;BME280;41678;52.126;20.664;2023-03-13T06:31:02;99539.66;;;2.39;92.73
55759;BME280;41678;52.126;20.664;2023-03-13T06:36:24;99534.56;;;2.46;91.88
55759;BME280;41678;52.126;20.664;2023-03-13T06:41:43;99529.41;;;2.52;92.71
55759;BME280;41678;52.126;20.664;2023-03-13T06:47:03;99538.97;;;2.56;92.60
55759;BME280;41678;52.126;20.664;2023-03-13T06:52:23;99524.34;;;2.66;92.54
55759;BME280;41678;52.126;20.664;2023-03-13T06:57:43;99525.28;;;2.76;92.97
55759;BME280;41678;52.126;20.664;2023-03-13T07:03:02;99526.19;;;2.84;92.82
55759;BME280;41678;52.126;20.664;2023-03-13T07:08:22;99529.78;;;3.00;93.20
55759;BME280;41678;52.126;20.664;2023-03-13T07:13:44;99507.25;;;3.01;93.74
55759;BME280;41678;52.126;20.664;2023-03-13T07:19:03;99509.97;;;3.21;93.58
55759;BME280;41678;52.126;20.664;2023-03-13T07:24:23;99503.94;;;3.26;93.92
55759;BME280;41678;52.126;20.664;2023-03-13T07:29:43;99493.59;;;3.40;93.96
55759;BME280;41678;52.126;20.664;2023-03-13T07:35:03;99493.66;;;3.51;93.49
55759;BME280;41678;52.126;20.664;2023-03-13T07:40:23;99504.09;;;3.58;93.46
55759;BME280;41678;52.126;20.664;2023-03-13T07:46:13;99499.78;;;3.71;93.76
55759;BME280;41678;52.126;20.664;2023-03-13T07:51:34;99500.72;;;3.80;93.65
55759;BME280;41678;52.126;20.664;2023-03-13T07:56:53;99485.09;;;3.90;93.83
55759;BME280;41678;52.126;20.664;2023-03-13T08:02:12;99492.97;;;4.10;93.44
55759;BME280;41678;52.126;20.664;2023-03-13T08:07:32;99485.19;;;4.30;94.23
55759;BME280;41678;52.126;20.664;2023-03-13T08:12:51;99487.81;;;4.58;94.16
55759;BME280;41678;52.126;20.664;2023-03-13T08:18:11;99487.81;;;4.71;93.96
55759;BME280;41678;52.126;20.664;2023-03-13T08:23:31;99484.31;;;4.92;94.21
55759;BME280;41678;52.126;20.664;2023-03-13T08:29:02;99468.63;;;5.10;94.60
55759;BME280;41678;52.126;20.664;2023-03-13T08:34:22;99452.91;;;5.32;94.32
55759;BME280;41678;52.126;20.664;2023-03-13T08:39:41;99458.09;;;5.46;94.55
55759;BME280;41678;52.126;20.664;2023-03-13T08:45:04;99446.63;;;5.75;94.71
55759;BME280;41678;52.126;20.664;2023-03-13T08:50:24;99433.50;;;5.88;94.39
55759;BME280;41678;52.126;20.664;2023-03-13T08:55:51;99407.25;;;6.09;94.88
55759;BME280;41678;52.126;20.664;2023-03-13T09:01:13;99410.56;;;6.30;94.76
55759;BME280;41678;52.126;20.664;2023-03-13T09:06:34;99404.34;;;6.48;94.46
55759;BME280;41678;52.126;20.664;2023-03-13T09:11:54;99391.97;;;6.68;94.44
55759;BME280;41678;52.126;20.664;2023-03-13T09:17:14;99379.66;;;6.77;94.26
55759;BME280;41678;52.126;20.664;2023-03-13T09:22:33;99377.66;;;6.98;94.13
55759;BME280;41678;52.126;20.664;2023-03-13T09:27:53;99389.69;;;7.15;93.87
55759;BME280;41678;52.126;20.664;2023-03-13T09:33:13;99374.66;;;7.31;93.79
55759;BME280;41678;52.126;20.664;2023-03-13T09:38:32;99367.56;;;7.39;93.78
55759;BME280;41678;52.126;20.664;2023-03-13T09:43:53;99372.63;;;7.51;93.61
55759;BME280;41678;52.126;20.664;2023-03-13T09:55:10;99358.19;;;7.84;93.21
55759;BME280;41678;52.126;20.664;2023-03-13T10:00:39;99344.19;;;7.85;93.43
55759;BME280;41678;52.126;20.664;2023-03-13T10:06:03;99351.06;;;7.93;93.40
55759;BME280;41678;52.126;20.664;2023-03-13T10:11:43;99356.16;;;8.04;93.20
55759;BME280;41678;52.126;20.664;2023-03-13T10:17:30;99348.94;;;8.17;92.70
55759;BME280;41678;52.126;20.664;2023-03-13T10:22:53;99345.44;;;8.17;92.84
55759;BME280;41678;52.126;20.664;2023-03-13T10:28:17;99322.66;;;8.22;92.79
55759;BME280;41678;52.126;20.664;2023-03-13T10:33:41;99327.69;;;8.33;92.71
55759;BME280;41678;52.126;20.664;2023-03-13T10:39:07;99308.28;;;8.42;92.61
55759;BME280;41678;52.126;20.664;2023-03-13T10:44:33;99301.19;;;8.48;92.42
55759;BME280;41678;52.126;20.664;2023-03-13T10:49:56;99313.22;;;8.62;91.94
55759;BME280;41678;52.126;20.664;2023-03-13T11:00:38;99277.06;;;8.75;91.63
55759;BME280;41678;52.126;20.664;2023-03-13T11:06:01;99265.50;;;8.85;91.75
55759;BME280;41678;52.126;20.664;2023-03-13T11:11:21;99248.69;;;8.94;91.35
55759;BME280;41678;52.126;20.664;2023-03-13T11:16:46;99226.44;;;9.11;90.78
55759;BME280;41678;52.126;20.664;2023-03-13T11:27:57;99217.97;;;9.37;90.00
55759;BME280;41678;52.126;20.664;2023-03-13T11:39:02;99181.56;;;9.58;89.92
55759;BME280;41678;52.126;20.664;2023-03-13T11:44:35;99184.56;;;9.77;88.99
55759;BME280;41678;52.126;20.664;2023-03-13T12:01:06;99169.94;;;10.01;88.30
55759;BME280;41678;52.126;20.664;2023-03-13T12:07:03;99163.72;;;10.04;88.47
55759;BME280;41678;52.126;20.664;2023-03-13T12:17:43;99153.06;;;10.09;88.46
55759;BME280;41678;52.126;20.664;2023-03-13T12:23:27;99145.09;;;10.12;88.76
55759;BME280;41678;52.126;20.664;2023-03-13T12:34:32;99134.75;;;10.05;88.73
55759;BME280;41678;52.126;20.664;2023-03-13T12:39:58;99128.72;;;10.02;89.17
55759;BME280;41678;52.126;20.664;2023-03-13T12:45:21;99114.94;;;9.94;89.40
55759;BME280;41678;52.126;20.664;2023-03-13T13:01:55;99101.00;;;9.90;90.03
55759;BME280;41678;52.126;20.664;2023-03-13T13:18:33;99082.84;;;9.81;91.22
55759;BME280;41678;52.126;20.664;2023-03-13T13:23:52;99077.66;;;9.77;91.71
55759;BME280;41678;52.126;20.664;2023-03-13T13:45:35;99056.06;;;9.66;93.32
55759;BME280;41678;52.126;20.664;2023-03-13T14:01:48;99030.19;;;9.52;94.27
55759;BME280;41678;52.126;20.664;2023-03-13T14:07:15;99010.16;;;9.48;94.59
55759;BME280;41678;52.126;20.664;2023-03-13T14:12:37;99016.44;;;9.42;94.82
55759;BME280;41678;52.126;20.664;2023-03-13T14:29:01;98985.97;;;9.35;94.83
55759;BME280;41678;52.126;20.664;2023-03-13T14:34:22;98963.25;;;9.34;95.10
55759;BME280;41678;52.126;20.664;2023-03-13T14:39:43;98947.66;;;9.28;95.08
55759;BME280;41678;52.126;20.664;2023-03-13T14:45:12;98959.72;;;9.35;94.95
55759;BME280;41678;52.126;20.664;2023-03-13T14:50:33;98953.75;;;9.28;94.96
55759;BME280;41678;52.126;20.664;2023-03-13T14:56:15;98946.69;;;9.30;95.31
55759;BME280;41678;52.126;20.664;2023-03-13T15:01:37;98929.34;;;9.25;95.79
55759;BME280;41678;52.126;20.664;2023-03-13T15:07:01;98925.00;;;9.24;95.25
55759;BME280;41678;52.126;20.664;2023-03-13T15:12:22;98921.63;;;9.18;95.77
55759;BME280;41678;52.126;20.664;2023-03-13T15:17:41;98918.03;;;9.23;95.57
55759;BME280;41678;52.126;20.664;2023-03-13T15:23:01;98911.09;;;9.20;95.55
55759;BME280;41678;52.126;20.664;2023-03-13T15:28:22;98920.63;;;9.24;95.03
55759;BME280;41678;52.126;20.664;2023-03-13T15:33:42;98917.16;;;9.22;95.08
55759;BME280;41678;52.126;20.664;2023-03-13T15:39:02;98923.28;;;9.23;95.52
55759;BME280;41678;52.126;20.664;2023-03-13T15:44:23;98911.31;;;9.12;95.94
55759;BME280;41678;52.126;20.664;2023-03-13T15:49:43;98911.13;;;9.18;95.91
55759;BME280;41678;52.126;20.664;2023-03-13T15:55:04;98906.06;;;9.12;96.02
55759;BME280;41678;52.126;20.664;2023-03-13T16:00:25;98899.94;;;9.12;95.45
55759;BME280;41678;52.126;20.664;2023-03-13T16:05:46;98902.69;;;9.07;95.57
55759;BME280;41678;52.126;20.664;2023-03-13T16:11:10;98897.38;;;9.10;95.70
55759;BME280;41678;52.126;20.664;2023-03-13T16:16:33;98906.88;;;9.14;95.01
55759;BME280;41678;52.126;20.664;2023-03-13T16:21:53;98913.03;;;9.13;95.08
55759;BME280;41678;52.126;20.664;2023-03-13T16:27:15;98920.09;;;9.11;94.61
55759;BME280;41678;52.126;20.664;2023-03-13T16:32:36;98904.34;;;9.11;94.70
55759;BME280;41678;52.126;20.664;2023-03-13T16:37:56;98907.78;;;9.13;94.69
55759;BME280;41678;52.126;20.664;2023-03-13T16:43:16;98906.06;;;9.12;94.31
55759;BME280;41678;52.126;20.664;2023-03-13T16:48:35;98905.88;;;9.18;94.10
55759;BME280;41678;52.126;20.664;2023-03-13T16:53:57;98910.31;;;9.16;93.78
55759;BME280;41678;52.126;20.664;2023-03-13T16:59:20;98912.72;;;9.26;93.78
55759;BME280;41678;52.126;20.664;2023-03-13T17:04:41;98921.22;;;9.34;93.12
55759;BME280;41678;52.126;20.664;2023-03-13T17:10:01;98921.31;;;9.31;93.31
55759;BME280;41678;52.126;20.664;2023-03-13T17:15:22;98932.59;;;9.34;93.20
55759;BME280;41678;52.126;20.664;2023-03-13T17:20:44;98913.28;;;9.35;93.10
55759;BME280;41678;52.126;20.664;2023-03-13T17:26:14;98922.84;;;9.38;92.65
55759;BME280;41678;52.126;20.664;2023-03-13T17:31:33;98929.81;;;9.39;92.67
55759;BME280;41678;52.126;20.664;2023-03-13T17:36:56;98925.47;;;9.38;92.79
55759;BME280;41678;52.126;20.664;2023-03-13T17:42:18;98925.19;;;9.49;92.24
55759;BME280;41678;52.126;20.664;2023-03-13T17:47:37;98923.31;;;9.53;92.02
55759;BME280;41678;52.126;20.664;2023-03-13T17:52:57;98917.13;;;9.54;91.59
55759;BME280;41678;52.126;20.664;2023-03-13T17:58:17;98914.47;;;9.55;91.26
55759;BME280;41678;52.126;20.664;2023-03-13T18:03:36;98916.06;;;9.61;91.09
55759;BME280;41678;52.126;20.664;2023-03-13T18:08:58;98909.91;;;9.62;90.87
55759;BME280;41678;52.126;20.664;2023-03-13T18:14:18;98893.31;;;9.60;90.67
55759;BME280;41678;52.126;20.664;2023-03-13T18:19:37;98883.84;;;9.54;90.25
55759;BME280;41678;52.126;20.664;2023-03-13T18:24:57;98911.63;;;9.63;90.23
55759;BME280;41678;52.126;20.664;2023-03-13T18:30:19;98905.50;;;9.62;90.69
55759;BME280;41678;52.126;20.664;2023-03-13T18:35:39;98892.50;;;9.58;90.38
55759;BME280;41678;52.126;20.664;2023-03-13T18:40:58;98899.44;;;9.60;89.80
55759;BME280;41678;52.126;20.664;2023-03-13T18:46:24;98896.84;;;9.59;89.85
55759;BME280;41678;52.126;20.664;2023-03-13T18:51:47;98890.69;;;9.60;90.08
55759;BME280;41678;52.126;20.664;2023-03-13T18:57:15;98881.94;;;9.59;89.17
55759;BME280;41678;52.126;20.664;2023-03-13T19:02:35;98875.84;;;9.59;89.05
55759;BME280;41678;52.126;20.664;2023-03-13T19:07:55;98873.09;;;9.62;88.46
55759;BME280;41678;52.126;20.664;2023-03-13T19:13:14;98854.69;;;9.63;88.46
55759;BME280;41678;52.126;20.664;2023-03-13T19:18:34;98862.50;;;9.65;88.23
55759;BME280;41678;52.126;20.664;2023-03-13T19:23:54;98877.34;;;9.66;88.30
55759;BME280;41678;52.126;20.664;2023-03-13T19:29:22;98892.13;;;9.70;88.54
55759;BME280;41678;52.126;20.664;2023-03-13T19:34:42;98890.56;;;9.64;88.30
55759;BME280;41678;52.126;20.664;2023-03-13T19:40:02;98882.63;;;9.66;88.37
55759;BME280;41678;52.126;20.664;2023-03-13T19:45:23;98888.69;;;9.68;88.98
55759;BME280;41678;52.126;20.664;2023-03-13T19:50:43;98888.84;;;9.63;88.79
55759;BME280;41678;52.126;20.664;2023-03-13T19:56:13;98886.13;;;9.67;88.55
55759;BME280;41678;52.126;20.664;2023-03-13T20:01:33;98879.88;;;9.69;88.29
55759;BME280;41678;52.126;20.664;2023-03-13T20:06:52;98886.16;;;9.65;88.50
55759;BME280;41678;52.126;20.664;2023-03-13T20:12:12;98883.41;;;9.68;88.77
55759;BME280;41678;52.126;20.664;2023-03-13T20:17:32;98872.91;;;9.68;88.21
55759;BME280;41678;52.126;20.664;2023-03-13T20:22:51;98865.94;;;9.67;88.40
55759;BME280;41678;52.126;20.664;2023-03-13T20:28:12;98871.19;;;9.67;88.35
55759;BME280;41678;52.126;20.664;2023-03-13T20:33:33;98862.47;;;9.67;87.84
55759;BME280;41678;52.126;20.664;2023-03-13T20:38:53;98859.69;;;9.71;88.20
55759;BME280;41678;52.126;20.664;2023-03-13T20:44:12;98862.34;;;9.71;87.93
55759;BME280;41678;52.126;20.664;2023-03-13T20:49:32;98851.81;;;9.71;87.55
55759;BME280;41678;52.126;20.664;2023-03-13T20:54:52;98847.31;;;9.75;87.56
55759;BME280;41678;52.126;20.664;2023-03-13T21:00:12;98842.16;;;9.72;87.27
55759;BME280;41678;52.126;20.664;2023-03-13T21:05:32;98832.41;;;9.75;87.00
55759;BME280;41678;52.126;20.664;2023-03-13T21:10:51;98830.69;;;9.74;87.12
55759;BME280;41678;52.126;20.664;2023-03-13T21:16:11;98829.91;;;9.71;86.61
55759;BME280;41678;52.126;20.664;2023-03-13T21:21:31;98821.09;;;9.73;86.70
55759;BME280;41678;52.126;20.664;2023-03-13T21:26:51;98824.63;;;9.72;86.25
55759;BME280;41678;52.126;20.664;2023-03-13T21:32:10;98814.13;;;9.72;85.96
55759;BME280;41678;52.126;20.664;2023-03-13T21:37:30;98793.91;;;9.74;86.00
55759;BME280;41678;52.126;20.664;2023-03-13T21:42:50;98803.38;;;9.78;86.14
55759;BME280;41678;52.126;20.664;2023-03-13T21:48:09;98774.84;;;9.68;85.71
55759;BME280;41678;52.126;20.664;2023-03-13T21:53:29;98780.09;;;9.68;86.32
55759;BME280;41678;52.126;20.664;2023-03-13T21:58:48;98769.56;;;9.68;85.72
55759;BME280;41678;52.126;20.664;2023-03-13T22:04:08;98766.38;;;9.58;85.69
55759;BME280;41678;52.126;20.664;2023-03-13T22:09:27;98750.00;;;9.49;85.70
55759;BME280;41678;52.126;20.664;2023-03-13T22:14:47;98747.94;;;9.59;85.28
55759;BME280;41678;52.126;20.664;2023-03-13T22:20:06;98757.78;;;9.53;85.18
55759;BME280;41678;52.126;20.664;2023-03-13T22:25:26;98766.81;;;9.44;85.53
55759;BME280;41678;52.126;20.664;2023-03-13T22:30:46;98761.63;;;9.42;85.48
55759;BME280;41678;52.126;20.664;2023-03-13T22:36:06;98747.75;;;9.37;85.22
55759;BME280;41678;52.126;20.664;2023-03-13T22:41:26;98740.19;;;9.28;85.33
55759;BME280;41678;52.126;20.664;2023-03-13T22:46:46;98747.94;;;9.31;85.43
55759;BME280;41678;52.126;20.664;2023-03-13T22:52:06;98739.38;;;9.26;84.66
55759;BME280;41678;52.126;20.664;2023-03-13T22:57:25;98745.59;;;9.21;85.15
55759;BME280;41678;52.126;20.664;2023-03-13T23:02:47;98736.97;;;9.18;85.08
55759;BME280;41678;52.126;20.664;2023-03-13T23:08:08;98745.84;;;9.14;84.92
55759;BME280;41678;52.126;20.664;2023-03-13T23:13:29;98740.66;;;9.12;84.86
55759;BME280;41678;52.126;20.664;2023-03-13T23:18:49;98743.28;;;9.12;84.68
55759;BME280;41678;52.126;20.664;2023-03-13T23:24:08;98718.22;;;9.00;84.51
55759;BME280;41678;52.126;20.664;2023-03-13T23:29:28;98712.16;;;8.98;84.49
55759;BME280;41678;52.126;20.664;2023-03-13T23:34:47;98712.47;;;8.89;84.57
55759;BME280;41678;52.126;20.664;2023-03-13T23:40:08;98709.00;;;8.87;84.47
55759;BME280;41678;52.126;20.664;2023-03-13T23:45:34;98700.53;;;8.77;84.38
55759;BME280;41678;52.126;20.664;2023-03-13T23:50:55;98691.69;;;8.81;84.25
55759;BME280;41678;52.126;20.664;2023-03-13T23:56:15;98696.09;;;8.79;83.93
